Prevelis — SYDL — position and weather

sailwx.info

Track history (hours):
 
Tides and Currents Weather Stations Pressure Air Temp Water Temp Dewpoint Dewpoint Depression Visibility Wind Speed Wind Dir Waves Ship Positions

Prevelis

Last reported at 2014-Oct-01 15:26 UTC. Time now 2014-Oct-02 02:38 UTC.
Position N 36°11' E 027°37'.

Length 143 m; draft 5.5 m.

Type: Passenger vessel. MMSI: 239297000.

Date/timePositionNaut miles runAvg speedWind from/ knotsBaromVisibWave heightAir tempDewpointWater temp
2014-Oct-01 15:26N 36°11' E 027°37'79 8.9
2014-Oct-01 06:33N 36°07' E 025°60'1817.6
2014-Oct-01 05:33N 36°20' E 025°46'1312.8
2014-Oct-01 04:33N 36°19' E 025°30'6 5.6
2014-Oct-01 03:33N 36°23' E 025°26'5 4.7
2014-Oct-01 02:33N 36°22' E 025°20'1818.3
2014-Oct-01 01:33N 36°32' E 025°00'1818.5
2014-Oct-01 00:33N 36°41' E 024°41'1413.7
2014-Sep-30 23:33N 36°44' E 024°24'4 3.3
2014-Sep-30 22:29N 36°47' E 024°22'1718.5
2014-Sep-30 21:33N 37°02' E 024°11'3618.1
2014-Sep-30 19:33N 37°33' E 023°47'1817.8
2014-Sep-30 18:33N 37°49' E 023°37'8 7.8
2014-Sep-30 17:33N 37°57' E 023°38'0 0.0
2014-Sep-30 16:33N 37°57' E 023°38'0 0.0
2014-Sep-30 15:33N 37°57' E 023°38'0 0.0
2014-Sep-30 14:33N 37°57' E 023°38'0 0.0
2014-Sep-30 13:34N 37°57' E 023°38'0 0.0
2014-Sep-30 12:34N 37°57' E 023°38'0 0.0
2014-Sep-30 11:33N 37°57' E 023°38'0 0.0
2014-Sep-30 10:33N 37°57' E 023°38'0 0.0
2014-Sep-30 09:33N 37°57' E 023°38'0 0.0
2014-Sep-30 08:34N 37°57' E 023°38'0 0.0
2014-Sep-30 07:33N 37°57' E 023°38'0 0.0
2014-Sep-30 06:33N 37°57' E 023°38'0 0.0
2014-Sep-30 05:33N 37°57' E 023°38'0 0.0
2014-Sep-30 04:33N 37°57' E 023°38'0 0.0
2014-Sep-30 03:33N 37°57' E 023°38'0 0.0
2014-Sep-30 02:33N 37°57' E 023°38'0 0.0
2014-Sep-30 01:33N 37°57' E 023°38'0 0.0
2014-Sep-30 00:34N 37°57' E 023°38'0 0.0
2014-Sep-29 23:33N 37°57' E 023°38'0 0.0
2014-Sep-29 22:33N 37°57' E 023°38'0 0.0
2014-Sep-29 21:34N 37°57' E 023°38'0 0.0
2014-Sep-29 20:33N 37°57' E 023°38'0 0.0
2014-Sep-29 19:33N 37°57' E 023°38'0 0.0
2014-Sep-29 18:34N 37°57' E 023°38'0 0.0
2014-Sep-29 17:33N 37°57' E 023°38'0 0.0
2014-Sep-29 16:33N 37°57' E 023°38'0 0.0
2014-Sep-29 15:33N 37°57' E 023°38'0 0.0
2014-Sep-29 14:33N 37°57' E 023°38'5 5.1
2014-Sep-29 13:34N 37°52' E 023°38'1817.7
2014-Sep-29 12:33N 37°35' E 023°48'3716.5
2014-Sep-29 10:17N 37°03' E 024°11'1115.7
2014-Sep-29 09:33N 36°53' E 024°18'1212.1
2014-Sep-29 08:33N 36°43' E 024°27'6 5.6
2014-Sep-29 07:33N 36°45' E 024°33'1817.1
2014-Sep-29 06:30N 36°36' E 024°52'1617.0
2014-Sep-29 05:33N 36°27' E 025°09'1414.1
2014-Sep-29 04:33N 36°23' E 025°26'2 1.9
2014-Sep-29 03:33N 36°23' E 025°23'7 7.4
2014-Sep-29 02:33N 36°25' E 025°32'11 8.9
2014-Sep-29 01:22N 36°21' E 025°45'1315.9
2014-Sep-29 00:33N 36°09' E 025°38'1616.2
2014-Sep-28 23:33N 35°54' E 025°31'21 4.8
2014-Sep-28 19:03N 35°36' E 025°16'17 0.4
2014-Sep-27 04:33N 35°50' E 025°29'1818.5
2014-Sep-27 03:33N 36°07' E 025°38'1512.5
2014-Sep-27 02:22N 36°21' E 025°45'1417.8
2014-Sep-27 01:34N 36°19' E 025°27'5 4.5
2014-Sep-27 00:33N 36°23' E 025°26'6 6.2
2014-Sep-26 23:33N 36°23' E 025°18'1817.9
2014-Sep-26 22:33N 36°32' E 024°59'1817.9
2014-Sep-26 21:33N 36°41' E 024°40'1211.0
2014-Sep-26 20:28N 36°43' E 024°25'3 3.8
2014-Sep-26 19:33N 36°46' E 024°23'2018.3
2014-Sep-26 18:28N 37°03' E 024°10'3818.4
2014-Sep-26 16:24N 37°36' E 023°46'1518.2
2014-Sep-26 15:33N 37°50' E 023°37'7 7.4
2014-Sep-26 14:33N 37°57' E 023°38'0 0.0
2014-Sep-26 13:33N 37°57' E 023°38'0 0.0
2014-Sep-26 12:33N 37°57' E 023°38'0 0.0
2014-Sep-26 11:33N 37°57' E 023°38'0 0.0
2014-Sep-26 10:33N 37°57' E 023°38'0 0.0
2014-Sep-26 09:33N 37°57' E 023°38'0 0.0
2014-Sep-26 08:33N 37°57' E 023°38'0 0.0
2014-Sep-26 07:33N 37°57' E 023°38'0 0.0
2014-Sep-26 06:33N 37°57' E 023°38'0 0.0
2014-Sep-26 05:33N 37°57' E 023°38'0 0.0
2014-Sep-26 04:33N 37°57' E 023°38'0 0.0
2014-Sep-26 03:33N 37°57' E 023°38'0 0.0
2014-Sep-26 02:33N 37°57' E 023°38'8 7.8
2014-Sep-26 01:34N 37°49' E 023°40'5618.1
2014-Sep-25 22:27N 36°59' E 024°13'1718.5
2014-Sep-25 21:31N 36°44' E 024°24'6 5.5
2014-Sep-25 20:22N 36°46' E 024°31'1718.0
2014-Sep-25 19:26N 36°37' E 024°49'1618.3
2014-Sep-25 18:33N 36°29' E 025°06'1616.5
2014-Sep-25 17:34N 36°23' E 025°25'2 2.4
2014-Sep-25 16:33N 36°23' E 025°23'1313.3
2014-Sep-25 15:33N 36°19' E 025°39'6 6.0
2014-Sep-25 14:33N 36°20' E 025°46'21 0.7
2014-Sep-24 07:05N 36°04' E 026°03'1018.3
2014-Sep-24 06:33N 36°10' E 025°54'1312.2
2014-Sep-24 05:30N 36°21' E 025°45'1616.8
2014-Sep-24 04:34N 36°19' E 025°25'5 4.7
2014-Sep-24 03:33N 36°23' E 025°26'7 6.7
2014-Sep-24 02:33N 36°23' E 025°17'1817.5
2014-Sep-24 01:33N 36°32' E 024°59'1817.6
2014-Sep-24 00:33N 36°41' E 024°40'1210.4
2014-Sep-23 23:26N 36°43' E 024°26'4 4.9
2014-Sep-23 22:33N 36°46' E 024°22'5618.3
2014-Sep-23 19:28N 37°35' E 023°46'1718.1
2014-Sep-23 18:34N 37°50' E 023°37'7 7.2
2014-Sep-23 17:34N 37°57' E 023°38'0 0.0
2014-Sep-23 16:33N 37°57' E 023°38'0 0.0
2014-Sep-23 15:33N 37°57' E 023°38'0 0.0
2014-Sep-23 14:34N 37°57' E 023°38'0 0.0
2014-Sep-23 13:33N 37°57' E 023°38'0 0.0
2014-Sep-23 12:33N 37°57' E 023°38'0 0.0
2014-Sep-23 11:34N 37°57' E 023°38'0 0.0
2014-Sep-23 10:33N 37°57' E 023°38'0 0.0
2014-Sep-23 09:33N 37°57' E 023°38'0 0.0
2014-Sep-23 08:33N 37°57' E 023°38'0 0.0
2014-Sep-23 07:33N 37°57' E 023°38'0 0.0
2014-Sep-23 06:33N 37°57' E 023°38'0 0.0
2014-Sep-23 05:33N 37°57' E 023°38'0 0.0
2014-Sep-23 04:33N 37°57' E 023°38'0 0.0
2014-Sep-23 03:34N 37°57' E 023°38'0 0.0
2014-Sep-23 02:34N 37°57' E 023°38'0 0.0
2014-Sep-23 01:34N 37°57' E 023°38'0 0.0
2014-Sep-23 00:33N 37°57' E 023°38'0 0.0
2014-Sep-22 23:33N 37°57' E 023°38'0 0.0
2014-Sep-22 22:34N 37°57' E 023°38'0 0.0
2014-Sep-22 21:33N 37°57' E 023°38'0 0.0
2014-Sep-22 20:33N 37°57' E 023°38'0 0.0
2014-Sep-22 19:34N 37°57' E 023°38'0 0.0
2014-Sep-22 18:33N 37°57' E 023°38'0 0.0
2014-Sep-22 17:34N 37°57' E 023°38'0 0.0
2014-Sep-22 16:33N 37°57' E 023°38'0 0.0
2014-Sep-22 15:33N 37°57' E 023°38'0 0.0
2014-Sep-22 14:33N 37°57' E 023°38'0 0.0
2014-Sep-22 13:34N 37°57' E 023°38'0 0.0
2014-Sep-22 12:33N 37°57' E 023°38'0 0.0
2014-Sep-22 11:33N 37°57' E 023°38'0 0.0
2014-Sep-22 10:34N 37°57' E 023°38'0 0.0
2014-Sep-22 09:33N 37°57' E 023°38'0 0.0
2014-Sep-22 08:33N 37°57' E 023°38'0 0.0
2014-Sep-22 07:33N 37°57' E 023°38'1 0.7
2014-Sep-22 06:33N 37°56' E 023°38'1716.6
2014-Sep-22 05:34N 37°41' E 023°45'4017.8
2014-Sep-22 03:19N 37°06' E 024°09'1417.8
2014-Sep-22 02:33N 36°54' E 024°17'1312.9
2014-Sep-22 01:33N 36°43' E 024°27'7 6.9
2014-Sep-22 00:33N 36°44' E 024°35'1818.0
2014-Sep-21 23:33N 36°34' E 024°54'1817.8
2014-Sep-21 22:33N 36°25' E 025°12'1110.7
2014-Sep-21 21:33N 36°23' E 025°26'5 4.5
2014-Sep-21 20:34N 36°20' E 025°22'1817.2
2014-Sep-21 19:31N 36°20' E 025°44'8 8.1
2014-Sep-21 18:33N 36°13' E 025°42'1817.7
2014-Sep-21 17:33N 35°57' E 025°32'  
Track history (hours):
 
Tides and Currents Weather Stations Pressure Air Temp Water Temp Dewpoint Dewpoint Depression Visibility Wind Speed Wind Dir Waves Ship Positions

Prevelis

Last reported at 2014-Oct-01 15:26 UTC. Time now 2014-Oct-02 02:38 UTC.
Position N 36°11' E 027°37'.

Length 143 m; draft 5.5 m.

Type: Passenger vessel. MMSI: 239297000.

Date/timePositionNaut miles runAvg speedWind from/ knotsBaromVisibWave heightAir tempDewpointWater temp
2014-Oct-01 15:26N 36°11' E 027°37'79 8.9
2014-Oct-01 06:33N 36°07' E 025°60'1817.6
2014-Oct-01 05:33N 36°20' E 025°46'1312.8
2014-Oct-01 04:33N 36°19' E 025°30'6 5.6
2014-Oct-01 03:33N 36°23' E 025°26'5 4.7
2014-Oct-01 02:33N 36°22' E 025°20'1818.3
2014-Oct-01 01:33N 36°32' E 025°00'1818.5
2014-Oct-01 00:33N 36°41' E 024°41'1413.7
2014-Sep-30 23:33N 36°44' E 024°24'4 3.3
2014-Sep-30 22:29N 36°47' E 024°22'1718.5
2014-Sep-30 21:33N 37°02' E 024°11'3618.1
2014-Sep-30 19:33N 37°33' E 023°47'1817.8
2014-Sep-30 18:33N 37°49' E 023°37'8 7.8
2014-Sep-30 17:33N 37°57' E 023°38'0 0.0
2014-Sep-30 16:33N 37°57' E 023°38'0 0.0
2014-Sep-30 15:33N 37°57' E 023°38'0 0.0
2014-Sep-30 14:33N 37°57' E 023°38'0 0.0
2014-Sep-30 13:34N 37°57' E 023°38'0 0.0
2014-Sep-30 12:34N 37°57' E 023°38'0 0.0
2014-Sep-30 11:33N 37°57' E 023°38'0 0.0
2014-Sep-30 10:33N 37°57' E 023°38'0 0.0
2014-Sep-30 09:33N 37°57' E 023°38'0 0.0
2014-Sep-30 08:34N 37°57' E 023°38'0 0.0
2014-Sep-30 07:33N 37°57' E 023°38'0 0.0
2014-Sep-30 06:33N 37°57' E 023°38'0 0.0
2014-Sep-30 05:33N 37°57' E 023°38'0 0.0
2014-Sep-30 04:33N 37°57' E 023°38'0 0.0
2014-Sep-30 03:33N 37°57' E 023°38'0 0.0
2014-Sep-30 02:33N 37°57' E 023°38'0 0.0
2014-Sep-30 01:33N 37°57' E 023°38'0 0.0
2014-Sep-30 00:34N 37°57' E 023°38'0 0.0
2014-Sep-29 23:33N 37°57' E 023°38'0 0.0
2014-Sep-29 22:33N 37°57' E 023°38'0 0.0
2014-Sep-29 21:34N 37°57' E 023°38'0 0.0
2014-Sep-29 20:33N 37°57' E 023°38'0 0.0
2014-Sep-29 19:33N 37°57' E 023°38'0 0.0
2014-Sep-29 18:34N 37°57' E 023°38'0 0.0
2014-Sep-29 17:33N 37°57' E 023°38'0 0.0
2014-Sep-29 16:33N 37°57' E 023°38'0 0.0
2014-Sep-29 15:33N 37°57' E 023°38'0 0.0
2014-Sep-29 14:33N 37°57' E 023°38'5 5.1
2014-Sep-29 13:34N 37°52' E 023°38'1817.7
2014-Sep-29 12:33N 37°35' E 023°48'3716.5
2014-Sep-29 10:17N 37°03' E 024°11'1115.7
2014-Sep-29 09:33N 36°53' E 024°18'1212.1
2014-Sep-29 08:33N 36°43' E 024°27'6 5.6
2014-Sep-29 07:33N 36°45' E 024°33'1817.1
2014-Sep-29 06:30N 36°36' E 024°52'1617.0
2014-Sep-29 05:33N 36°27' E 025°09'1414.1
2014-Sep-29 04:33N 36°23' E 025°26'2 1.9
2014-Sep-29 03:33N 36°23' E 025°23'7 7.4
2014-Sep-29 02:33N 36°25' E 025°32'11 8.9
2014-Sep-29 01:22N 36°21' E 025°45'1315.9
2014-Sep-29 00:33N 36°09' E 025°38'1616.2
2014-Sep-28 23:33N 35°54' E 025°31'21 4.8
2014-Sep-28 19:03N 35°36' E 025°16'17 0.4
2014-Sep-27 04:33N 35°50' E 025°29'1818.5
2014-Sep-27 03:33N 36°07' E 025°38'1512.5
2014-Sep-27 02:22N 36°21' E 025°45'1417.8
2014-Sep-27 01:34N 36°19' E 025°27'5 4.5
2014-Sep-27 00:33N 36°23' E 025°26'6 6.2
2014-Sep-26 23:33N 36°23' E 025°18'1817.9
2014-Sep-26 22:33N 36°32' E 024°59'1817.9
2014-Sep-26 21:33N 36°41' E 024°40'1211.0
2014-Sep-26 20:28N 36°43' E 024°25'3 3.8
2014-Sep-26 19:33N 36°46' E 024°23'2018.3
2014-Sep-26 18:28N 37°03' E 024°10'3818.4
2014-Sep-26 16:24N 37°36' E 023°46'1518.2
2014-Sep-26 15:33N 37°50' E 023°37'7 7.4
2014-Sep-26 14:33N 37°57' E 023°38'0 0.0
2014-Sep-26 13:33N 37°57' E 023°38'0 0.0
2014-Sep-26 12:33N 37°57' E 023°38'0 0.0
2014-Sep-26 11:33N 37°57' E 023°38'0 0.0
2014-Sep-26 10:33N 37°57' E 023°38'0 0.0
2014-Sep-26 09:33N 37°57' E 023°38'0 0.0
2014-Sep-26 08:33N 37°57' E 023°38'0 0.0
2014-Sep-26 07:33N 37°57' E 023°38'0 0.0
2014-Sep-26 06:33N 37°57' E 023°38'0 0.0
2014-Sep-26 05:33N 37°57' E 023°38'0 0.0
2014-Sep-26 04:33N 37°57' E 023°38'0 0.0
2014-Sep-26 03:33N 37°57' E 023°38'0 0.0
2014-Sep-26 02:33N 37°57' E 023°38'8 7.8
2014-Sep-26 01:34N 37°49' E 023°40'5618.1
2014-Sep-25 22:27N 36°59' E 024°13'1718.5
2014-Sep-25 21:31N 36°44' E 024°24'6 5.5
2014-Sep-25 20:22N 36°46' E 024°31'1718.0
2014-Sep-25 19:26N 36°37' E 024°49'1618.3
2014-Sep-25 18:33N 36°29' E 025°06'1616.5
2014-Sep-25 17:34N 36°23' E 025°25'2 2.4
2014-Sep-25 16:33N 36°23' E 025°23'1313.3
2014-Sep-25 15:33N 36°19' E 025°39'6 6.0
2014-Sep-25 14:33N 36°20' E 025°46'21 0.7
2014-Sep-24 07:05N 36°04' E 026°03'1018.3
2014-Sep-24 06:33N 36°10' E 025°54'1312.2
2014-Sep-24 05:30N 36°21' E 025°45'1616.8
2014-Sep-24 04:34N 36°19' E 025°25'5 4.7
2014-Sep-24 03:33N 36°23' E 025°26'7 6.7
2014-Sep-24 02:33N 36°23' E 025°17'1817.5
2014-Sep-24 01:33N 36°32' E 024°59'1817.6
2014-Sep-24 00:33N 36°41' E 024°40'1210.4
2014-Sep-23 23:26N 36°43' E 024°26'4 4.9
2014-Sep-23 22:33N 36°46' E 024°22'5618.3
2014-Sep-23 19:28N 37°35' E 023°46'1718.1
2014-Sep-23 18:34N 37°50' E 023°37'7 7.2
2014-Sep-23 17:34N 37°57' E 023°38'0 0.0
2014-Sep-23 16:33N 37°57' E 023°38'0 0.0
2014-Sep-23 15:33N 37°57' E 023°38'0 0.0
2014-Sep-23 14:34N 37°57' E 023°38'0 0.0
2014-Sep-23 13:33N 37°57' E 023°38'0 0.0
2014-Sep-23 12:33N 37°57' E 023°38'0 0.0
2014-Sep-23 11:34N 37°57' E 023°38'0 0.0
2014-Sep-23 10:33N 37°57' E 023°38'0 0.0
2014-Sep-23 09:33N 37°57' E 023°38'0 0.0
2014-Sep-23 08:33N 37°57' E 023°38'0 0.0
2014-Sep-23 07:33N 37°57' E 023°38'0 0.0
2014-Sep-23 06:33N 37°57' E 023°38'0 0.0
2014-Sep-23 05:33N 37°57' E 023°38'0 0.0
2014-Sep-23 04:33N 37°57' E 023°38'0 0.0
2014-Sep-23 03:34N 37°57' E 023°38'0 0.0
2014-Sep-23 02:34N 37°57' E 023°38'0 0.0
2014-Sep-23 01:34N 37°57' E 023°38'0 0.0
2014-Sep-23 00:33N 37°57' E 023°38'0 0.0
2014-Sep-22 23:33N 37°57' E 023°38'0 0.0
2014-Sep-22 22:34N 37°57' E 023°38'0 0.0
2014-Sep-22 21:33N 37°57' E 023°38'0 0.0
2014-Sep-22 20:33N 37°57' E 023°38'0 0.0
2014-Sep-22 19:34N 37°57' E 023°38'0 0.0
2014-Sep-22 18:33N 37°57' E 023°38'0 0.0
2014-Sep-22 17:34N 37°57' E 023°38'0 0.0
2014-Sep-22 16:33N 37°57' E 023°38'0 0.0
2014-Sep-22 15:33N 37°57' E 023°38'0 0.0
2014-Sep-22 14:33N 37°57' E 023°38'0 0.0
2014-Sep-22 13:34N 37°57' E 023°38'0 0.0
2014-Sep-22 12:33N 37°57' E 023°38'0 0.0
2014-Sep-22 11:33N 37°57' E 023°38'0 0.0
2014-Sep-22 10:34N 37°57' E 023°38'0 0.0
2014-Sep-22 09:33N 37°57' E 023°38'0 0.0
2014-Sep-22 08:33N 37°57' E 023°38'0 0.0
2014-Sep-22 07:33N 37°57' E 023°38'1 0.7
2014-Sep-22 06:33N 37°56' E 023°38'1716.6
2014-Sep-22 05:34N 37°41' E 023°45'4017.8
2014-Sep-22 03:19N 37°06' E 024°09'1417.8
2014-Sep-22 02:33N 36°54' E 024°17'1312.9
2014-Sep-22 01:33N 36°43' E 024°27'7 6.9
2014-Sep-22 00:33N 36°44' E 024°35'1818.0
2014-Sep-21 23:33N 36°34' E 024°54'1817.8
2014-Sep-21 22:33N 36°25' E 025°12'1110.7
2014-Sep-21 21:33N 36°23' E 025°26'5 4.5
2014-Sep-21 20:34N 36°20' E 025°22'1817.2
2014-Sep-21 19:31N 36°20' E 025°44'8 8.1
2014-Sep-21 18:33N 36°13' E 025°42'1817.7
2014-Sep-21 17:33N 35°57' E 025°32'  

Dump ship's entire track history